Mineral'Nye Vody, Russia
Current Conditions -  °F | °C
As of 7:00 PM on Monday 26 Jan 2015 (Local Time) from URMM Reporting Station
Overcast Overcast  
Wind Chill: 34°   Ceiling: 700
Heat Index: 34°   Visibility: 6mi
Dew Point: 30°   Wind: 2mph
Humidity: 87%   Direction: NA
Pressure: 30.12"   Gusts: NA
Location:  44.23°N, 43.07°E
Report Text: URMM 261600Z VRB01MPS 9999 OVC007 01/M01 Q1020 R12/CLRD70 NOSIGRMK MT OBSC QFE737/0983
Loading
Personal Weather Stations






























Interactive Weather Map New forecast layout! Learn more

10-Day Weather Forecast

Advertisements
Track Severe Weather on mobile